Crete, North Dakota
Current Conditions -  °F | °C
As of 6:15 AM on Monday 24 Nov 2014 (Local Time) from KGWR Reporting Station
Overcast Overcast  
Wind Chill: -2°   Ceiling: 1400
Heat Index: 16°   Visibility: 10mi
Dew Point:   Wind: 21mph
Humidity: 73%   Direction: 340°NNW
Pressure: 29.65"   Gusts: 28mph
Location:  46.2395°N, 97.8821°W
Report Text: KGWR 241215Z AUTO 34018G24KT 10SM FEW008 BKN014 OVC023 M09/M13 A2965 RMK A01 P000
Loading
Personal Weather Stations






























Interactive Weather Map New forecast layout! Learn more

10-Day Weather Forecast

Advertisements
Track Severe Weather on mobile